Terminal Aerodrome Forecast
Issued by NWS Charleston, WV

Current Version | Previous Version | Text Only | Print | Product List | Glossary On
Versions: 1 2 3 4 5 6 7 8 9 10 11 12 13 14 15 16 17 18 19 20 21 22 23 24 25 26
000
FTUS41 KRLX 191120
TAFEKN
TAF
KEKN 191120Z 1912/2012 00000KT 4SM BR FEW001 SCT050
     FM191400 22002KT P6SM BKN150
     FM191900 27008KT P6SM VCSH BKN090
     FM200000 VRB02KT P6SM BKN080
     FM200300 00000KT P6SM SCT100
     FM200600 00000KT 4SM BR FEW250
     FM200800 00000KT 2SM BR SCT001
     FM200900 00000KT 1/4SM FG VV001=

USA.gov is the U.S. government's official web portal to all federal, state and local government web resources and services.